createdAt,value
2023-03-05T00:01:18.999Z,14.20
2023-03-05T00:03:46.298Z,13.45
2023-03-05T00:06:13.438Z,13.77
2023-03-05T00:08:40.294Z,12.30
2023-03-05T00:11:10.252Z,12.65
2023-03-05T00:13:37.850Z,12.05
2023-03-05T00:16:11.211Z,12.75
2023-03-05T00:18:38.717Z,13.37
2023-03-05T00:21:17.439Z,14.00
2023-03-05T00:23:44.059Z,14.23
2023-03-05T00:26:10.689Z,13.77
2023-03-05T00:28:37.316Z,14.57
2023-03-05T00:31:04.406Z,14.23
2023-03-05T00:33:31.045Z,13.77
2023-03-05T00:35:58.751Z,13.23
2023-03-05T00:38:25.786Z,14.70
2023-03-05T00:40:52.444Z,14.15
2023-03-05T00:43:19.006Z,13.73
2023-03-05T00:45:45.877Z,13.43
2023-03-05T00:48:12.543Z,14.50
2023-03-05T00:50:39.179Z,14.68
2023-03-05T00:53:06.378Z,13.55
2023-03-05T00:55:32.997Z,15.50
2023-03-05T00:57:59.602Z,14.77
2023-03-05T01:00:26.442Z,14.27
2023-03-05T01:02:53.062Z,14.07
2023-03-05T01:05:20.116Z,13.60
2023-03-05T01:07:46.870Z,13.77
2023-03-05T01:10:13.929Z,14.77
2023-03-05T01:12:40.633Z,13.52
2023-03-05T01:15:07.663Z,13.50
2023-03-05T01:17:34.721Z,15.52
2023-03-05T01:20:01.461Z,14.02
2023-03-05T01:22:28.738Z,14.40
2023-03-05T01:24:55.577Z,14.07
2023-03-05T01:27:22.166Z,15.70
2023-03-05T01:29:48.926Z,14.25
2023-03-05T01:32:16.116Z,14.93
2023-03-05T01:34:42.734Z,13.52
2023-03-05T01:37:09.733Z,16.17
2023-03-05T01:39:36.474Z,15.82
2023-03-05T01:42:04.510Z,14.88
2023-03-05T01:44:33.063Z,14.43
2023-03-05T01:47:00.099Z,13.57
2023-03-05T01:49:35.477Z,15.75
2023-03-05T01:52:17.962Z,14.18
2023-03-05T01:54:55.003Z,13.77
2023-03-05T01:57:53.721Z,14.93
2023-03-05T02:00:25.808Z,14.05
2023-03-05T02:02:52.845Z,14.80
2023-03-05T02:05:27.294Z,14.73
2023-03-05T02:07:59.018Z,15.43
2023-03-05T02:10:33.858Z,14.85
2023-03-05T02:13:06.905Z,14.88
2023-03-05T02:15:34.440Z,15.57
2023-03-05T02:18:01.705Z,16.05
2023-03-05T02:20:31.601Z,14.48
2023-03-05T02:22:58.247Z,14.80
2023-03-05T02:25:28.060Z,15.70
2023-03-05T02:28:02.709Z,16.88
2023-03-05T02:30:31.411Z,15.77
2023-03-05T02:32:58.464Z,13.88
2023-03-05T02:35:25.644Z,15.18
2023-03-05T02:37:52.428Z,15.13
2023-03-05T02:40:19.301Z,14.32
2023-03-05T02:42:46.768Z,17.17
2023-03-05T02:45:13.903Z,16.75
2023-03-05T02:47:40.730Z,15.98
2023-03-05T02:50:10.293Z,15.88
2023-03-05T02:52:37.131Z,15.85
2023-03-05T02:55:04.270Z,15.05
2023-03-05T02:57:31.010Z,15.98
2023-03-05T02:59:57.735Z,17.15
2023-03-05T03:02:24.367Z,15.48
2023-03-05T03:04:54.743Z,15.68
2023-03-05T03:07:21.350Z,15.18
2023-03-05T03:09:49.629Z,14.80
2023-03-05T03:12:16.217Z,15.95
2023-03-05T03:14:43.760Z,15.60
2023-03-05T03:17:13.898Z,16.42
2023-03-05T03:19:41.456Z,17.63
2023-03-05T03:22:10.197Z,17.02
2023-03-05T03:24:38.771Z,14.40
2023-03-05T03:27:05.693Z,15.82
2023-03-05T03:29:32.572Z,14.48
2023-03-05T03:31:59.772Z,14.63
2023-03-05T03:34:27.083Z,14.18
2023-03-05T03:36:54.188Z,14.85
2023-03-05T03:39:22.078Z,16.33
2023-03-05T03:41:51.378Z,15.32
2023-03-05T03:44:19.705Z,26.65
2023-03-05T03:46:47.932Z,22.65
2023-03-05T03:49:17.349Z,26.60
2023-03-05T03:51:43.977Z,15.23
2023-03-05T03:54:10.771Z,34.85
2023-03-05T03:56:37.517Z,30.52
2023-03-05T03:59:04.299Z,16.52
2023-03-05T04:01:31.012Z,14.93
2023-03-05T04:03:57.638Z,15.18
2023-03-05T04:06:24.416Z,15.90
2023-03-05T04:08:51.121Z,17.00
2023-03-05T04:11:19.566Z,15.88
2023-03-05T04:13:47.785Z,15.43
2023-03-05T04:16:15.632Z,21.35
2023-03-05T04:18:42.735Z,15.60
2023-03-05T04:21:09.825Z,23.23
2023-03-05T04:23:36.513Z,15.60
2023-03-05T04:26:03.263Z,17.13
2023-03-05T04:28:30.323Z,16.60
2023-03-05T04:30:57.033Z,17.13
2023-03-05T04:33:23.820Z,16.15
2023-03-05T04:35:51.227Z,17.10
2023-03-05T04:38:18.051Z,18.23
2023-03-05T04:40:45.838Z,14.85
2023-03-05T04:43:12.775Z,15.70
2023-03-05T04:45:41.326Z,22.02
2023-03-05T04:48:09.138Z,16.90
2023-03-05T04:50:35.725Z,14.70
2023-03-05T04:53:02.970Z,15.57
2023-03-05T04:55:30.083Z,16.30
2023-03-05T04:57:56.866Z,29.05
2023-03-05T05:00:23.715Z,17.60
2023-03-05T05:02:52.320Z,18.95
2023-03-05T05:05:24.770Z,17.55
2023-03-05T05:07:58.135Z,30.27
2023-03-05T05:10:25.460Z,22.88
2023-03-05T05:12:52.270Z,18.98
2023-03-05T05:15:19.453Z,17.92
2023-03-05T05:17:46.742Z,17.50
2023-03-05T05:20:15.075Z,17.75
2023-03-05T05:22:42.402Z,17.58
2023-03-05T05:25:10.497Z,15.70
2023-03-05T05:27:39.123Z,16.35
2023-03-05T05:30:07.179Z,16.80
2023-03-05T05:32:34.273Z,16.38
2023-03-05T05:35:00.922Z,16.35
2023-03-05T05:37:27.917Z,15.48
2023-03-05T05:39:54.577Z,16.40
2023-03-05T05:42:24.262Z,16.25
2023-03-05T05:44:51.017Z,17.30
2023-03-05T05:47:18.365Z,16.42
2023-03-05T05:49:45.018Z,15.45
2023-03-05T05:52:11.813Z,16.27
2023-03-05T05:54:39.136Z,16.63
2023-03-05T05:57:06.349Z,18.23
2023-03-05T05:59:33.319Z,17.00
2023-03-05T06:02:00.265Z,18.15
2023-03-05T06:04:26.934Z,23.35
2023-03-05T06:06:53.665Z,24.70
2023-03-05T06:09:20.372Z,22.02
2023-03-05T06:11:47.298Z,22.20
2023-03-05T06:14:14.429Z,21.45
2023-03-05T06:16:41.529Z,21.80
2023-03-05T06:19:11.651Z,23.00
2023-03-05T06:21:38.513Z,26.70
2023-03-05T06:24:05.921Z,29.08
2023-03-05T06:26:33.300Z,32.03
2023-03-05T06:29:00.031Z,31.67
2023-03-05T06:31:28.076Z,31.15
2023-03-05T06:33:57.094Z,34.97
2023-03-05T06:36:25.528Z,35.92
2023-03-05T06:38:53.597Z,36.92
2023-03-05T06:41:25.213Z,36.67
2023-03-05T06:43:52.067Z,34.55
2023-03-05T06:46:20.112Z,36.28
2023-03-05T06:48:47.184Z,38.63
2023-03-05T06:51:19.788Z,47.20
2023-03-05T06:53:49.396Z,47.22
2023-03-05T06:56:16.868Z,41.15
2023-03-05T06:58:46.057Z,36.42
2023-03-05T07:01:14.501Z,28.90
2023-03-05T07:03:42.004Z,27.75
2023-03-05T07:06:12.142Z,28.73
2023-03-05T07:08:39.326Z,29.15
2023-03-05T07:11:22.515Z,30.08
2023-03-05T07:13:49.937Z,28.25
2023-03-05T07:16:19.344Z,28.27
2023-03-05T07:18:46.593Z,26.92
2023-03-05T07:21:22.807Z,25.80
2023-03-05T07:23:50.345Z,24.85
2023-03-05T07:26:17.136Z,21.58
2023-03-05T07:28:43.777Z,19.55
2023-03-05T07:31:19.392Z,19.05
2023-03-05T07:33:47.515Z,19.60
2023-03-05T07:36:14.544Z,17.42
2023-03-05T07:38:41.604Z,17.73
2023-03-05T07:41:11.335Z,16.85
2023-03-05T07:43:38.872Z,19.05
2023-03-05T07:46:11.464Z,16.55
2023-03-05T07:48:38.721Z,15.15
2023-03-05T07:51:15.184Z,15.52
2023-03-05T07:53:47.000Z,13.88
2023-03-05T07:56:14.307Z,15.98
2023-03-05T07:58:41.026Z,15.07
2023-03-05T08:01:15.473Z,15.32
2023-03-05T08:03:43.529Z,15.48
2023-03-05T08:06:12.340Z,15.43
2023-03-05T08:08:39.050Z,14.32
2023-03-05T08:11:07.920Z,14.15
2023-03-05T08:13:36.235Z,14.63
2023-03-05T08:16:15.103Z,14.63
2023-03-05T08:18:42.455Z,14.63
2023-03-05T08:21:22.995Z,13.07
2023-03-05T08:23:50.117Z,15.50
2023-03-05T08:26:20.333Z,13.63
2023-03-05T08:28:47.961Z,15.65
2023-03-05T08:31:16.561Z,14.40
2023-03-05T08:33:43.841Z,15.80
2023-03-05T08:36:11.260Z,12.70
2023-03-05T08:38:37.957Z,14.30
2023-03-05T08:41:05.129Z,14.45
2023-03-05T08:43:33.408Z,14.20
2023-03-05T08:46:01.432Z,13.63
2023-03-05T08:48:29.921Z,14.07
2023-03-05T08:50:57.144Z,14.30
2023-03-05T08:53:24.444Z,14.30
2023-03-05T08:55:58.437Z,13.38
2023-03-05T08:58:25.336Z,14.20
2023-03-05T09:00:52.256Z,12.82
2023-03-05T09:03:19.240Z,12.93
2023-03-05T09:05:46.323Z,13.57
2023-03-05T09:08:12.991Z,12.82
2023-03-05T09:10:42.836Z,13.68
2023-03-05T09:13:10.060Z,13.82
2023-03-05T09:15:37.459Z,13.98
2023-03-05T09:18:04.699Z,13.27
2023-03-05T09:20:31.528Z,12.48
2023-03-05T09:22:58.151Z,14.15
2023-03-05T09:25:24.953Z,13.52
2023-03-05T09:27:51.685Z,12.43
2023-03-05T09:30:18.536Z,13.68
2023-03-05T09:32:45.500Z,14.50
2023-03-05T09:35:12.589Z,13.57
2023-03-05T09:37:39.195Z,13.88
2023-03-05T09:40:06.436Z,13.57
2023-03-05T09:42:45.372Z,13.32
2023-03-05T09:45:27.021Z,14.85
2023-03-05T09:48:06.555Z,14.88
2023-03-05T09:50:36.461Z,13.50
2023-03-05T09:53:11.905Z,15.90
2023-03-05T09:55:42.643Z,14.10
2023-03-05T09:58:43.940Z,13.95
2023-03-05T10:01:14.550Z,14.32
2023-03-05T10:03:49.477Z,14.35
2023-03-05T10:06:23.954Z,14.60
2023-03-05T10:09:25.749Z,14.60
2023-03-05T10:12:06.377Z,13.65
2023-03-05T10:14:40.254Z,14.57
2023-03-05T10:17:27.296Z,15.23
2023-03-05T10:20:22.703Z,15.38
2023-03-05T10:23:01.546Z,16.00
2023-03-05T10:26:19.091Z,16.75
2023-03-05T10:28:57.654Z,14.73
2023-03-05T10:32:03.415Z,14.93
2023-03-05T10:34:43.149Z,15.82
2023-03-05T10:37:17.257Z,16.02
2023-03-05T10:43:07.650Z,15.45
2023-03-05T10:45:43.165Z,14.68
2023-03-05T10:48:15.729Z,16.52
2023-03-05T10:50:50.453Z,15.38
2023-03-05T10:53:28.153Z,16.63
2023-03-05T10:55:56.816Z,17.08
2023-03-05T10:58:25.151Z,16.13
2023-03-05T11:01:28.979Z,15.90
2023-03-05T11:04:01.214Z,16.50
2023-03-05T11:06:47.756Z,16.88
2023-03-05T11:09:32.431Z,14.77
2023-03-05T11:12:19.015Z,14.77
2023-03-05T11:15:07.521Z,13.60
2023-03-05T11:17:43.431Z,14.43
2023-03-05T11:20:29.207Z,13.52
2023-03-05T11:23:03.247Z,13.07
2023-03-05T11:25:31.294Z,14.48
2023-03-05T11:28:00.614Z,13.55
2023-03-05T11:30:35.498Z,13.30
2023-03-05T11:33:31.968Z,13.30
2023-03-05T11:36:24.612Z,11.80
2023-03-05T11:39:00.359Z,13.45
2023-03-05T11:41:32.560Z,12.18
2023-03-05T11:44:03.932Z,12.88
2023-03-05T11:46:42.710Z,10.30
2023-03-05T11:49:14.790Z,9.20
2023-03-05T11:51:46.305Z,9.77
2023-03-05T11:54:21.293Z,10.18
2023-03-05T11:56:48.189Z,10.30
2023-03-05T11:59:20.013Z,11.35
2023-03-05T12:01:50.577Z,9.63
2023-03-05T12:04:21.194Z,9.77
2023-03-05T12:06:49.703Z,10.48
2023-03-05T12:09:35.416Z,10.02
2023-03-05T12:12:21.015Z,9.30
2023-03-05T12:15:09.606Z,9.45
2023-03-05T12:17:55.266Z,9.70
2023-03-05T12:20:35.167Z,9.48
2023-03-05T12:23:02.143Z,9.50
2023-03-05T12:25:31.877Z,8.93
2023-03-05T12:27:59.184Z,9.00
2023-03-05T12:30:49.674Z,9.63
2023-03-05T12:33:37.565Z,9.38
2023-03-05T12:36:22.704Z,8.90
2023-03-05T12:38:53.555Z,9.38
2023-03-05T12:41:22.970Z,10.00
2023-03-05T12:44:18.176Z,8.55
2023-03-05T12:47:25.589Z,9.60
2023-03-05T12:49:52.444Z,9.30
2023-03-05T12:52:24.885Z,8.13
2023-03-05T12:55:03.805Z,8.57
2023-03-05T12:57:31.437Z,8.88
2023-03-05T13:00:21.730Z,8.25
2023-03-05T13:02:56.191Z,8.55
2023-03-05T13:05:36.099Z,8.32
2023-03-05T13:08:22.267Z,9.27
2023-03-05T13:10:54.398Z,9.13
2023-03-05T13:13:21.725Z,8.23
2023-03-05T13:15:50.582Z,8.77
2023-03-05T13:18:23.573Z,8.88
2023-03-05T13:21:04.740Z,8.77
2023-03-05T13:23:33.330Z,8.82
2023-03-05T13:26:03.702Z,9.05
2023-03-05T13:28:32.651Z,8.35
2023-03-05T13:31:12.360Z,7.93
2023-03-05T13:33:39.476Z,8.52
2023-03-05T13:36:07.274Z,7.13
2023-03-05T13:38:43.989Z,6.63
2023-03-05T13:41:43.043Z,6.45
2023-03-05T13:44:21.961Z,7.43
2023-03-05T13:46:48.925Z,6.72
2023-03-05T13:49:25.700Z,6.53
2023-03-05T13:52:00.131Z,6.47
2023-03-05T13:54:28.432Z,7.07
2023-03-05T13:56:58.864Z,7.75
2023-03-05T13:59:31.969Z,6.28
2023-03-05T14:02:00.798Z,6.65
2023-03-05T14:04:36.831Z,6.30
2023-03-05T14:07:18.778Z,6.65
2023-03-05T14:09:52.531Z,7.22
2023-03-05T14:12:30.499Z,7.50
2023-03-05T14:14:59.412Z,7.25
2023-03-05T14:17:41.885Z,6.43
2023-03-05T14:20:27.608Z,6.43
2023-03-05T14:22:59.419Z,6.95
2023-03-05T14:25:36.706Z,7.00
2023-03-05T14:28:17.804Z,7.07
2023-03-05T14:30:49.331Z,7.60
2023-03-05T14:33:32.480Z,6.55
2023-03-05T14:36:01.496Z,6.97
2023-03-05T14:38:32.031Z,7.68
2023-03-05T14:40:58.638Z,7.82
2023-03-05T14:43:25.659Z,8.35
2023-03-05T14:45:52.423Z,7.80
2023-03-05T14:48:19.273Z,7.60
2023-03-05T14:50:51.688Z,6.65
2023-03-05T14:53:23.014Z,7.28
2023-03-05T14:55:53.918Z,7.10
2023-03-05T14:58:22.147Z,6.88
2023-03-05T15:00:51.117Z,7.00
2023-03-05T15:03:19.410Z,7.22
2023-03-05T15:05:49.555Z,7.38
2023-03-05T15:08:29.361Z,6.88
2023-03-05T15:10:56.502Z,7.05
2023-03-05T15:13:23.455Z,7.22
2023-03-05T15:15:51.588Z,7.45
2023-03-05T15:18:20.685Z,6.70
2023-03-05T15:20:54.915Z,6.78
2023-03-05T15:25:48.365Z,6.90
2023-03-05T15:28:15.846Z,7.43
2023-03-05T15:30:45.792Z,6.80
2023-03-05T15:33:15.554Z,7.03
2023-03-05T15:35:43.115Z,6.47
2023-03-05T15:38:09.718Z,6.93
2023-03-05T15:40:36.651Z,6.13
2023-03-05T15:43:03.729Z,6.97
2023-03-05T15:45:33.801Z,6.32
2023-03-05T15:48:00.641Z,6.68
2023-03-05T15:50:27.466Z,6.68
2023-03-05T15:52:54.128Z,6.25
2023-03-05T15:55:24.062Z,6.72
2023-03-05T15:57:52.328Z,6.13
2023-03-05T16:00:25.793Z,6.85
2023-03-05T16:02:53.970Z,7.15
2023-03-05T16:05:20.704Z,6.88
2023-03-05T16:07:50.334Z,6.47
2023-03-05T16:10:22.984Z,6.97
2023-03-05T16:12:57.756Z,6.47
2023-03-05T16:15:25.416Z,6.65
2023-03-05T16:17:56.231Z,6.50
2023-03-05T16:20:23.771Z,6.30
2023-03-05T16:22:50.828Z,6.60
2023-03-05T16:25:18.068Z,6.60
2023-03-05T16:27:45.128Z,6.95
2023-03-05T16:30:15.126Z,7.13
2023-03-05T16:32:42.319Z,6.63
2023-03-05T16:35:11.945Z,7.10
2023-03-05T16:37:39.842Z,6.82
2023-03-05T16:40:08.934Z,6.88
2023-03-05T16:42:35.538Z,7.40
2023-03-05T16:45:02.991Z,7.95
2023-03-05T16:47:29.876Z,7.07
2023-03-05T16:49:56.615Z,8.10
2023-03-05T16:52:23.574Z,11.32
2023-03-05T16:54:50.346Z,12.75
2023-03-05T16:57:17.053Z,13.10
2023-03-05T16:59:43.959Z,13.55
2023-03-05T17:02:13.277Z,13.10
2023-03-05T17:04:40.177Z,14.73
2023-03-05T17:07:07.170Z,12.98
2023-03-05T17:09:34.069Z,12.95
2023-03-05T17:12:00.992Z,14.32
2023-03-05T17:14:28.534Z,12.27
2023-03-05T17:16:55.379Z,12.77
2023-03-05T17:19:22.116Z,13.82
2023-03-05T17:21:51.186Z,12.55
2023-03-05T17:24:20.173Z,14.82
2023-03-05T17:26:48.436Z,13.07
2023-03-05T17:29:15.104Z,12.82
2023-03-05T17:31:41.981Z,13.40
2023-03-05T17:34:08.673Z,11.68
2023-03-05T17:36:35.336Z,10.23
2023-03-05T17:39:02.002Z,8.68
2023-03-05T17:41:28.672Z,8.43
2023-03-05T17:43:55.300Z,8.60
2023-03-05T17:46:22.151Z,7.85
2023-03-05T17:48:48.808Z,6.53
2023-03-05T17:51:16.785Z,7.43
2023-03-05T17:53:44.347Z,7.00
2023-03-05T17:56:13.455Z,7.38
2023-03-05T17:58:40.693Z,6.82
2023-03-05T18:01:08.727Z,7.47
2023-03-05T18:03:36.547Z,7.28
2023-03-05T18:06:04.954Z,7.63
2023-03-05T18:08:32.067Z,7.50
2023-03-05T18:10:58.755Z,6.95
2023-03-05T18:13:26.098Z,7.43
2023-03-05T18:15:52.843Z,6.93
2023-03-05T18:18:19.676Z,7.05
2023-03-05T18:20:47.700Z,7.47
2023-03-05T18:23:14.595Z,8.02
2023-03-05T18:25:41.444Z,7.18
2023-03-05T18:28:12.953Z,7.35
2023-03-05T18:30:40.944Z,8.18
2023-03-05T18:33:09.124Z,8.00
2023-03-05T18:35:36.973Z,6.70
2023-03-05T18:38:03.843Z,7.88
2023-03-05T18:40:32.681Z,7.25
2023-03-05T18:43:01.072Z,7.60
2023-03-05T18:45:29.138Z,7.40
2023-03-05T18:47:56.742Z,6.93
2023-03-05T18:50:28.467Z,7.63
2023-03-05T18:52:55.798Z,7.63
2023-03-05T18:55:25.527Z,7.45
2023-03-05T18:57:52.869Z,7.05
2023-03-05T19:00:22.841Z,7.40
2023-03-05T19:02:49.754Z,7.30
2023-03-05T19:05:16.937Z,7.13
2023-03-05T19:07:43.650Z,7.60
2023-03-05T19:10:12.376Z,7.32
2023-03-05T19:13:13.722Z,8.02
2023-03-05T19:15:40.618Z,7.65
2023-03-05T19:18:07.644Z,8.20
2023-03-05T19:20:34.412Z,7.30
2023-03-05T19:23:01.079Z,7.57
2023-03-05T19:25:27.678Z,6.93
2023-03-05T19:27:55.112Z,7.30
2023-03-05T19:30:21.934Z,7.43
2023-03-05T19:32:49.724Z,7.30
2023-03-05T19:35:17.567Z,7.28
2023-03-05T19:37:45.968Z,6.55
2023-03-05T19:40:14.318Z,7.10
2023-03-05T19:42:41.198Z,7.22
2023-03-05T19:45:08.602Z,7.05
2023-03-05T19:47:35.428Z,7.57
2023-03-05T19:50:02.790Z,7.53
2023-03-05T19:52:29.412Z,6.55
2023-03-05T19:54:56.412Z,7.82
2023-03-05T19:57:23.122Z,6.85
2023-03-05T19:59:53.863Z,7.72
2023-03-05T20:02:22.013Z,7.93
2023-03-05T20:04:49.782Z,7.80
2023-03-05T20:07:16.623Z,9.57
2023-03-05T20:09:43.425Z,7.13
2023-03-05T20:12:10.549Z,7.43
2023-03-05T20:14:37.286Z,7.35
2023-03-05T20:17:04.128Z,7.00
2023-03-05T20:19:30.828Z,7.55
2023-03-05T20:21:57.540Z,7.20
2023-03-05T20:24:24.413Z,6.75
2023-03-05T20:26:51.132Z,6.43
2023-03-05T20:29:18.831Z,7.50
2023-03-05T20:31:46.465Z,6.60
2023-03-05T20:34:15.939Z,6.88
2023-03-05T20:36:43.586Z,6.57
2023-03-05T20:39:10.548Z,7.30
2023-03-05T20:41:38.996Z,7.85
2023-03-05T20:44:07.364Z,6.55
2023-03-05T20:46:36.848Z,6.93
2023-03-05T20:49:04.693Z,6.75
2023-03-05T20:51:35.213Z,7.68
2023-03-05T20:54:11.315Z,6.50
2023-03-05T20:56:38.036Z,7.35
2023-03-05T20:59:08.641Z,7.55
2023-03-05T21:01:37.725Z,6.70
2023-03-05T21:04:05.052Z,8.30
2023-03-05T21:06:32.589Z,7.30
2023-03-05T21:08:59.891Z,6.40
2023-03-05T21:11:27.610Z,7.82
2023-03-05T21:13:54.306Z,6.80
2023-03-05T21:16:26.311Z,7.22
2023-03-05T21:18:53.650Z,7.00
2023-03-05T21:21:20.445Z,6.93
2023-03-05T21:23:47.434Z,6.47
2023-03-05T21:26:14.546Z,6.60
2023-03-05T21:28:41.858Z,6.95
2023-03-05T21:31:14.266Z,5.65
2023-03-05T21:33:42.112Z,6.00
2023-03-05T21:36:09.176Z,5.90
2023-03-05T21:38:36.584Z,5.40
2023-03-05T21:41:05.218Z,6.70
2023-03-05T21:43:32.683Z,5.57
2023-03-05T21:46:01.572Z,5.65
2023-03-05T21:48:28.320Z,5.93
2023-03-05T21:50:55.462Z,5.88
2023-03-05T21:53:22.500Z,5.65
2023-03-05T21:56:24.164Z,5.57
2023-03-05T21:58:51.947Z,5.72
2023-03-05T22:01:21.058Z,5.93
2023-03-05T22:03:49.001Z,5.28
2023-03-05T22:06:18.242Z,5.38
2023-03-05T22:08:45.007Z,6.03
2023-03-05T22:11:14.342Z,6.03
2023-03-05T22:13:41.727Z,6.07
2023-03-05T22:16:09.693Z,5.30
2023-03-05T22:18:36.838Z,5.53
2023-03-05T22:21:03.960Z,5.35
2023-03-05T22:23:34.101Z,5.63
2023-03-05T22:26:06.766Z,5.78
2023-03-05T22:28:34.804Z,5.88
2023-03-05T22:31:01.436Z,5.72
2023-03-05T22:33:28.739Z,5.55
2023-03-05T22:35:55.582Z,6.28
2023-03-05T22:38:22.763Z,6.00
2023-03-05T22:40:50.129Z,6.57
2023-03-05T22:43:18.248Z,6.65
2023-03-05T22:45:45.056Z,6.57
2023-03-05T22:48:11.962Z,6.40
2023-03-05T22:50:40.026Z,6.35
2023-03-05T22:53:06.737Z,6.45
2023-03-05T22:55:33.433Z,5.90
2023-03-05T22:58:00.093Z,5.82
2023-03-05T23:00:26.828Z,5.95
2023-03-05T23:02:54.049Z,6.55
2023-03-05T23:05:21.165Z,7.50
2023-03-05T23:07:48.021Z,7.75
2023-03-05T23:10:19.490Z,8.35
2023-03-05T23:12:49.471Z,8.38
2023-03-05T23:15:19.455Z,8.32
2023-03-05T23:17:46.265Z,8.55
2023-03-05T23:20:17.057Z,8.27
2023-03-05T23:22:45.337Z,8.10
2023-03-05T23:25:13.612Z,8.40
2023-03-05T23:27:40.846Z,8.93
2023-03-05T23:30:19.954Z,8.77
2023-03-05T23:32:57.253Z,8.48
2023-03-05T23:35:27.107Z,8.60
2023-03-05T23:37:55.567Z,8.77
2023-03-05T23:40:24.793Z,9.27
2023-03-05T23:42:52.595Z,9.02
2023-03-05T23:45:20.419Z,9.30
2023-03-05T23:47:48.361Z,9.75
2023-03-05T23:50:25.605Z,9.20
2023-03-05T23:52:54.336Z,9.30
2023-03-05T23:55:27.040Z,8.15
2023-03-05T23:57:54.166Z,9.68
